Flugplatz Schwandorf

Für EDPF sind keine METAR/TAF Berichte vorhanden.
Es werden die Flugwettermeldungen vom Flugplatz Hohenfels Army Air Field in 28 km Entfernung angezeigt.

Bericht für ETIH

vom 15.07. um 16:56 UTC

Wind 4 kt aus 250°

Sichtweite 10 km oder mehr

bedeckt in 7000 ft

Temperatur 18.1°C

Taupunkt 11.9°C

Luftfeuchtigkeit 67%

Luftdruck 1014 hPa

ETIH 151656Z AUTO 25004KT 9999 OVC070 18/12 A2995 RMK AO2 SLP136 T01810119
Keine Prognose (TAF) verfügbar.
Impressum